createdAt,value
2023-01-09T00:02:12.966Z,63.00559
2023-01-09T00:17:15.392Z,19.38634
2023-01-09T00:32:17.699Z,2.90795
2023-01-09T00:47:19.911Z,0
2023-01-09T01:02:22.395Z,0.96932
2023-01-09T01:17:25.122Z,0.96932
2023-01-09T01:32:27.488Z,0.96932
2023-01-09T01:47:29.905Z,0.96932
2023-01-09T02:02:32.584Z,0.96932
2023-01-09T02:17:34.991Z,0.96932
2023-01-09T02:32:37.379Z,0.96932
2023-01-09T02:47:39.736Z,0.96932
2023-01-09T03:02:42.176Z,0.96932
2023-01-09T03:17:44.642Z,0.96932
2023-01-09T03:32:46.947Z,0.96932
2023-01-09T03:47:49.723Z,0.96932
2023-01-09T04:02:53.536Z,0.96932
2023-01-09T04:17:55.869Z,0.96932
2023-01-09T04:32:58.268Z,0.96932
2023-01-09T04:48:00.930Z,0.96932
2023-01-09T05:03:03.220Z,0.96932
2023-01-09T05:18:05.525Z,0.96932
2023-01-09T05:33:07.912Z,0.96932
2023-01-09T05:48:10.328Z,0.96932
2023-01-09T06:03:12.696Z,0.96932
2023-01-09T06:18:15.346Z,0.96932
2023-01-09T06:33:17.672Z,0.96932
2023-01-09T06:48:20.047Z,0.96932
2023-01-09T07:03:22.394Z,0.96932
2023-01-09T07:18:24.815Z,0.96932
2023-01-09T07:33:27.146Z,0.96932
2023-01-09T07:48:29.720Z,0.96932
2023-01-09T08:03:32.213Z,0.96932
2023-01-09T08:18:34.506Z,0.96932
2023-01-09T08:33:37.739Z,0.96932
2023-01-09T08:48:41.025Z,0.96932
2023-01-09T09:03:43.363Z,0.96932
2023-01-09T09:18:45.631Z,0.96932
2023-01-09T09:33:47.960Z,0.96932
2023-01-09T09:48:50.262Z,0.96932
2023-01-09T10:03:52.691Z,0.96932
2023-01-09T10:18:55.088Z,0.96932
2023-01-09T10:33:57.453Z,0.96932
2023-01-09T10:48:59.735Z,0.96932
2023-01-09T11:04:02.143Z,0.96932
2023-01-09T11:19:04.557Z,0.96932
2023-01-09T11:34:06.823Z,0.96932
2023-01-09T11:49:09.167Z,0.96932
2023-01-09T12:04:11.570Z,0.96932
2023-01-09T12:19:15.298Z,0.96932
2023-01-09T12:34:17.625Z,0.96932
2023-01-09T12:49:19.890Z,0.96932
2023-01-09T13:04:22.200Z,0.96932
2023-01-09T13:19:24.558Z,0.96932
2023-01-09T13:34:26.995Z,0.96932
2023-01-09T13:49:29.321Z,0.96932
2023-01-09T14:04:31.588Z,0.96932
2023-01-09T14:19:33.950Z,0.96932
2023-01-09T14:34:36.304Z,0
2023-01-09T14:49:38.610Z,0
2023-01-09T15:04:40.968Z,0
2023-01-09T15:19:43.359Z,1.93863
2023-01-09T15:34:45.670Z,17.4477
2023-01-09T15:49:47.969Z,95.96236
2023-01-09T16:04:50.328Z,372.21762
2023-01-09T16:19:52.834Z,811.31812
2023-01-09T16:34:55.130Z,1611.97375
2023-01-09T16:49:57.477Z,2379.67261
2023-01-09T17:04:59.828Z,3786.15112
2023-01-09T17:20:02.132Z,4267.90137
2023-01-09T17:35:04.486Z,6743.53662
2023-01-09T17:50:06.869Z,5303.13184
2023-01-09T18:05:09.351Z,8799.45703
2023-01-09T18:20:11.679Z,9723.21582
2023-01-09T18:35:14.115Z,8703.49512
2023-01-09T18:50:16.709Z,12853.13965
2023-01-09T19:05:19.094Z,5045.29346
2023-01-09T19:20:21.340Z,5560.97021
2023-01-09T19:35:23.776Z,6819.14307
2023-01-09T19:50:26.264Z,5976.80713
2023-01-09T20:05:28.853Z,5201.35352
2023-01-09T20:20:31.183Z,4354.1709
2023-01-09T20:35:33.558Z,4071.13013
2023-01-09T20:50:35.982Z,3707.63647
2023-01-09T21:05:38.323Z,3620.39795
2023-01-09T21:20:40.712Z,2975.80225
2023-01-09T21:35:43.050Z,2502.77588
2023-01-09T21:50:45.420Z,1817.46887
2023-01-09T22:05:47.734Z,1432.65015
2023-01-09T22:20:49.980Z,929.57471
2023-01-09T22:35:52.314Z,663.98193
2023-01-09T22:50:54.705Z,610.66956
2023-01-09T23:05:56.976Z,536.03217
2023-01-09T23:20:59.453Z,463.3334
2023-01-09T23:36:01.802Z,157.99863
2023-01-09T23:51:04.097Z,170.59975
